sensor_id;sensor_type;location;lat;lon;timestamp;temperature;humidity
18779;DHT22;9518;51.720;14.384;2023-07-31T00:00:51;13.90;99.90
18779;DHT22;9518;51.720;14.384;2023-07-31T00:03:18;13.80;99.90
18779;DHT22;9518;51.720;14.384;2023-07-31T00:05:45;13.80;99.90
18779;DHT22;9518;51.720;14.384;2023-07-31T00:08:14;13.70;99.90
18779;DHT22;9518;51.720;14.384;2023-07-31T00:10:40;13.80;99.90
18779;DHT22;9518;51.720;14.384;2023-07-31T00:13:08;13.70;99.90
18779;DHT22;9518;51.720;14.384;2023-07-31T00:15:35;13.70;99.90
18779;DHT22;9518;51.720;14.384;2023-07-31T00:18:02;13.70;99.90
18779;DHT22;9518;51.720;14.384;2023-07-31T00:20:29;13.70;99.90
18779;DHT22;9518;51.720;14.384;2023-07-31T00:22:55;13.60;99.90
18779;DHT22;9518;51.720;14.384;2023-07-31T00:25:24;13.70;99.90
18779;DHT22;9518;51.720;14.384;2023-07-31T00:27:51;13.60;99.90
18779;DHT22;9518;51.720;14.384;2023-07-31T00:30:18;13.60;99.90
18779;DHT22;9518;51.720;14.384;2023-07-31T00:32:45;13.60;99.90
18779;DHT22;9518;51.720;14.384;2023-07-31T00:35:11;13.60;99.90
18779;DHT22;9518;51.720;14.384;2023-07-31T00:37:38;13.50;99.90
18779;DHT22;9518;51.720;14.384;2023-07-31T00:40:07;13.40;99.90
18779;DHT22;9518;51.720;14.384;2023-07-31T00:42:35;13.40;99.90
18779;DHT22;9518;51.720;14.384;2023-07-31T00:45:02;13.40;99.90
18779;DHT22;9518;51.720;14.384;2023-07-31T00:47:29;13.30;99.90
18779;DHT22;9518;51.720;14.384;2023-07-31T00:49:56;13.20;99.90
18779;DHT22;9518;51.720;14.384;2023-07-31T00:52:24;13.20;99.90
18779;DHT22;9518;51.720;14.384;2023-07-31T00:54:51;13.10;99.90
18779;DHT22;9518;51.720;14.384;2023-07-31T00:57:18;13.10;99.90
18779;DHT22;9518;51.720;14.384;2023-07-31T00:59:46;13.00;99.90
18779;DHT22;9518;51.720;14.384;2023-07-31T01:02:13;13.00;99.90
18779;DHT22;9518;51.720;14.384;2023-07-31T01:04:42;13.00;99.90
18779;DHT22;9518;51.720;14.384;2023-07-31T01:07:13;13.00;99.90
18779;DHT22;9518;51.720;14.384;2023-07-31T01:09:44;13.00;99.90
18779;DHT22;9518;51.720;14.384;2023-07-31T01:12:15;12.90;99.90
18779;DHT22;9518;51.720;14.384;2023-07-31T01:14:52;12.90;99.90
18779;DHT22;9518;51.720;14.384;2023-07-31T01:17:28;12.90;99.90
18779;DHT22;9518;51.720;14.384;2023-07-31T01:19:56;12.90;99.90
18779;DHT22;9518;51.720;14.384;2023-07-31T01:22:39;12.90;99.90
18779;DHT22;9518;51.720;14.384;2023-07-31T01:25:16;12.90;99.90
18779;DHT22;9518;51.720;14.384;2023-07-31T01:27:59;12.90;99.90
18779;DHT22;9518;51.720;14.384;2023-07-31T01:30:31;12.90;99.90
18779;DHT22;9518;51.720;14.384;2023-07-31T01:33:01;13.00;99.90
18779;DHT22;9518;51.720;14.384;2023-07-31T01:35:32;13.10;99.90
18779;DHT22;9518;51.720;14.384;2023-07-31T01:37:59;13.10;99.90
18779;DHT22;9518;51.720;14.384;2023-07-31T01:40:26;13.20;99.90
18779;DHT22;9518;51.720;14.384;2023-07-31T01:42:55;13.30;99.90
18779;DHT22;9518;51.720;14.384;2023-07-31T01:45:22;13.50;99.90
18779;DHT22;9518;51.720;14.384;2023-07-31T01:47:49;13.60;99.90
18779;DHT22;9518;51.720;14.384;2023-07-31T01:50:16;13.60;99.90
18779;DHT22;9518;51.720;14.384;2023-07-31T01:52:43;13.60;99.90
18779;DHT22;9518;51.720;14.384;2023-07-31T01:55:09;13.70;99.90
18779;DHT22;9518;51.720;14.384;2023-07-31T01:57:37;13.80;99.90
18779;DHT22;9518;51.720;14.384;2023-07-31T02:00:06;13.80;99.90
18779;DHT22;9518;51.720;14.384;2023-07-31T02:02:33;13.90;99.90
18779;DHT22;9518;51.720;14.384;2023-07-31T02:05:00;13.90;99.90
18779;DHT22;9518;51.720;14.384;2023-07-31T02:07:27;14.00;99.90
18779;DHT22;9518;51.720;14.384;2023-07-31T02:09:54;14.00;99.90
18779;DHT22;9518;51.720;14.384;2023-07-31T02:12:21;14.00;99.90
18779;DHT22;9518;51.720;14.384;2023-07-31T02:14:48;14.10;99.90
18779;DHT22;9518;51.720;14.384;2023-07-31T02:17:16;14.20;99.90
18779;DHT22;9518;51.720;14.384;2023-07-31T02:19:43;14.20;99.90
18779;DHT22;9518;51.720;14.384;2023-07-31T02:22:10;14.30;99.90
18779;DHT22;9518;51.720;14.384;2023-07-31T02:24:37;14.30;99.90
18779;DHT22;9518;51.720;14.384;2023-07-31T02:27:05;14.40;99.90
18779;DHT22;9518;51.720;14.384;2023-07-31T02:29:32;14.40;99.90
18779;DHT22;9518;51.720;14.384;2023-07-31T02:31:59;14.50;99.90
18779;DHT22;9518;51.720;14.384;2023-07-31T02:34:27;14.50;99.90
18779;DHT22;9518;51.720;14.384;2023-07-31T02:36:54;14.60;99.90
18779;DHT22;9518;51.720;14.384;2023-07-31T02:39:21;14.60;99.90
18779;DHT22;9518;51.720;14.384;2023-07-31T02:41:48;14.60;99.90
18779;DHT22;9518;51.720;14.384;2023-07-31T02:44:15;14.60;99.90
18779;DHT22;9518;51.720;14.384;2023-07-31T02:46:41;14.60;99.90
18779;DHT22;9518;51.720;14.384;2023-07-31T02:49:08;14.60;99.90
18779;DHT22;9518;51.720;14.384;2023-07-31T02:51:37;14.50;99.90
18779;DHT22;9518;51.720;14.384;2023-07-31T02:54:04;14.50;99.90
18779;DHT22;9518;51.720;14.384;2023-07-31T02:56:30;14.40;99.90
18779;DHT22;9518;51.720;14.384;2023-07-31T02:58:57;14.30;99.90
18779;DHT22;9518;51.720;14.384;2023-07-31T03:01:24;14.30;99.90
18779;DHT22;9518;51.720;14.384;2023-07-31T03:03:51;14.30;99.90
18779;DHT22;9518;51.720;14.384;2023-07-31T03:06:18;14.30;99.90
18779;DHT22;9518;51.720;14.384;2023-07-31T03:08:47;14.30;99.90
18779;DHT22;9518;51.720;14.384;2023-07-31T03:11:13;14.20;99.90
18779;DHT22;9518;51.720;14.384;2023-07-31T03:13:40;14.30;99.90
18779;DHT22;9518;51.720;14.384;2023-07-31T03:16:07;14.30;99.90
18779;DHT22;9518;51.720;14.384;2023-07-31T03:18:34;14.30;99.90
18779;DHT22;9518;51.720;14.384;2023-07-31T03:21:01;14.30;99.90
18779;DHT22;9518;51.720;14.384;2023-07-31T03:23:28;14.20;99.90
18779;DHT22;9518;51.720;14.384;2023-07-31T03:25:57;14.20;99.90
18779;DHT22;9518;51.720;14.384;2023-07-31T03:28:24;14.20;99.90
18779;DHT22;9518;51.720;14.384;2023-07-31T03:30:51;14.20;99.90
18779;DHT22;9518;51.720;14.384;2023-07-31T03:33:18;14.20;99.90
18779;DHT22;9518;51.720;14.384;2023-07-31T03:35:45;14.20;99.90
18779;DHT22;9518;51.720;14.384;2023-07-31T03:38:12;14.20;99.90
18779;DHT22;9518;51.720;14.384;2023-07-31T03:40:39;14.20;99.90
18779;DHT22;9518;51.720;14.384;2023-07-31T03:43:08;14.20;99.90
18779;DHT22;9518;51.720;14.384;2023-07-31T03:45:35;14.30;99.90
18779;DHT22;9518;51.720;14.384;2023-07-31T03:48:03;14.30;99.90
18779;DHT22;9518;51.720;14.384;2023-07-31T03:50:30;14.30;99.90
18779;DHT22;9518;51.720;14.384;2023-07-31T03:52:57;14.40;99.90
18779;DHT22;9518;51.720;14.384;2023-07-31T03:55:24;14.40;99.90
18779;DHT22;9518;51.720;14.384;2023-07-31T03:57:51;14.50;99.90
18779;DHT22;9518;51.720;14.384;2023-07-31T04:00:19;14.60;99.90
18779;DHT22;9518;51.720;14.384;2023-07-31T04:02:47;14.70;99.90
18779;DHT22;9518;51.720;14.384;2023-07-31T04:05:14;14.80;99.90
18779;DHT22;9518;51.720;14.384;2023-07-31T04:07:41;14.90;99.90
18779;DHT22;9518;51.720;14.384;2023-07-31T04:10:09;14.90;99.90
18779;DHT22;9518;51.720;14.384;2023-07-31T04:12:36;15.00;99.90
18779;DHT22;9518;51.720;14.384;2023-07-31T04:15:03;15.00;99.90
18779;DHT22;9518;51.720;14.384;2023-07-31T04:17:31;15.10;99.90
18779;DHT22;9518;51.720;14.384;2023-07-31T04:19:58;15.20;99.90
18779;DHT22;9518;51.720;14.384;2023-07-31T04:22:25;15.30;99.90
18779;DHT22;9518;51.720;14.384;2023-07-31T04:24:52;15.30;99.90
18779;DHT22;9518;51.720;14.384;2023-07-31T04:27:19;15.30;99.90
18779;DHT22;9518;51.720;14.384;2023-07-31T04:29:46;15.40;99.90
18779;DHT22;9518;51.720;14.384;2023-07-31T04:32:13;15.50;99.90
18779;DHT22;9518;51.720;14.384;2023-07-31T04:34:43;15.60;99.90
18779;DHT22;9518;51.720;14.384;2023-07-31T04:37:10;15.80;99.90
18779;DHT22;9518;51.720;14.384;2023-07-31T04:39:37;15.80;99.90
18779;DHT22;9518;51.720;14.384;2023-07-31T04:42:04;15.90;99.90
18779;DHT22;9518;51.720;14.384;2023-07-31T04:44:31;16.00;99.90
18779;DHT22;9518;51.720;14.384;2023-07-31T04:46:58;16.10;99.90
18779;DHT22;9518;51.720;14.384;2023-07-31T04:49:25;16.10;99.90
18779;DHT22;9518;51.720;14.384;2023-07-31T04:51:53;16.20;99.90
18779;DHT22;9518;51.720;14.384;2023-07-31T04:54:20;16.30;99.90
18779;DHT22;9518;51.720;14.384;2023-07-31T04:56:47;16.20;99.90
18779;DHT22;9518;51.720;14.384;2023-07-31T04:59:14;16.20;99.90
18779;DHT22;9518;51.720;14.384;2023-07-31T05:01:41;16.00;99.90
18779;DHT22;9518;51.720;14.384;2023-07-31T05:04:08;15.80;99.90
18779;DHT22;9518;51.720;14.384;2023-07-31T05:06:35;15.70;99.90
18779;DHT22;9518;51.720;14.384;2023-07-31T05:09:03;15.50;99.90
18779;DHT22;9518;51.720;14.384;2023-07-31T05:11:30;15.40;1.00
18779;DHT22;9518;51.720;14.384;2023-07-31T05:13:57;15.40;1.00
18779;DHT22;9518;51.720;14.384;2023-07-31T05:16:24;15.30;1.00
18779;DHT22;9518;51.720;14.384;2023-07-31T05:18:51;15.30;1.00
18779;DHT22;9518;51.720;14.384;2023-07-31T05:21:18;15.20;1.00
18779;DHT22;9518;51.720;14.384;2023-07-31T05:23:45;15.20;1.00
18779;DHT22;9518;51.720;14.384;2023-07-31T05:26:14;15.30;1.00
18779;DHT22;9518;51.720;14.384;2023-07-31T05:28:41;15.40;1.00
18779;DHT22;9518;51.720;14.384;2023-07-31T05:31:08;15.50;1.00
18779;DHT22;9518;51.720;14.384;2023-07-31T05:33:35;15.60;1.00
18779;DHT22;9518;51.720;14.384;2023-07-31T05:36:02;15.80;1.00
18779;DHT22;9518;51.720;14.384;2023-07-31T05:38:29;15.90;95.60
18779;DHT22;9518;51.720;14.384;2023-07-31T05:40:56;16.10;1.00
18779;DHT22;9518;51.720;14.384;2023-07-31T05:43:24;16.20;1.00
18779;DHT22;9518;51.720;14.384;2023-07-31T05:45:51;16.50;1.00
18779;DHT22;9518;51.720;14.384;2023-07-31T05:48:18;16.60;1.00
18779;DHT22;9518;51.720;14.384;2023-07-31T05:50:45;16.70;1.00
18779;DHT22;9518;51.720;14.384;2023-07-31T05:53:12;16.70;1.00
18779;DHT22;9518;51.720;14.384;2023-07-31T05:55:39;16.80;99.90
18779;DHT22;9518;51.720;14.384;2023-07-31T05:58:06;16.70;1.00
18779;DHT22;9518;51.720;14.384;2023-07-31T06:00:34;16.70;1.00
18779;DHT22;9518;51.720;14.384;2023-07-31T06:03:02;16.80;99.90
18779;DHT22;9518;51.720;14.384;2023-07-31T06:05:30;16.90;99.90
18779;DHT22;9518;51.720;14.384;2023-07-31T06:07:57;17.00;1.00
18779;DHT22;9518;51.720;14.384;2023-07-31T06:10:24;17.10;1.00
18779;DHT22;9518;51.720;14.384;2023-07-31T06:12:51;17.10;1.00
18779;DHT22;9518;51.720;14.384;2023-07-31T06:15:18;17.10;1.00
18779;DHT22;9518;51.720;14.384;2023-07-31T06:17:47;17.10;1.00
18779;DHT22;9518;51.720;14.384;2023-07-31T06:20:14;17.10;1.00
18779;DHT22;9518;51.720;14.384;2023-07-31T06:22:41;17.00;1.00
18779;DHT22;9518;51.720;14.384;2023-07-31T06:25:08;17.00;99.90
18779;DHT22;9518;51.720;14.384;2023-07-31T06:27:35;16.90;1.00
18779;DHT22;9518;51.720;14.384;2023-07-31T06:30:02;16.80;1.00
18779;DHT22;9518;51.720;14.384;2023-07-31T06:32:29;16.80;1.00
18779;DHT22;9518;51.720;14.384;2023-07-31T06:34:58;16.70;1.00
18779;DHT22;9518;51.720;14.384;2023-07-31T06:37:25;16.70;1.00
18779;DHT22;9518;51.720;14.384;2023-07-31T06:39:51;16.70;1.00
18779;DHT22;9518;51.720;14.384;2023-07-31T06:42:18;16.80;1.00
18779;DHT22;9518;51.720;14.384;2023-07-31T06:44:45;16.80;1.00
18779;DHT22;9518;51.720;14.384;2023-07-31T06:47:12;16.90;99.90
18779;DHT22;9518;51.720;14.384;2023-07-31T06:49:39;17.10;80.30
18779;DHT22;9518;51.720;14.384;2023-07-31T06:52:08;17.10;99.90
18779;DHT22;9518;51.720;14.384;2023-07-31T06:54:36;17.10;1.00
18779;DHT22;9518;51.720;14.384;2023-07-31T06:57:04;17.10;1.00
18779;DHT22;9518;51.720;14.384;2023-07-31T06:59:31;17.10;1.00
18779;DHT22;9518;51.720;14.384;2023-07-31T07:01:58;17.10;1.00
18779;DHT22;9518;51.720;14.384;2023-07-31T07:04:25;17.00;1.00
18779;DHT22;9518;51.720;14.384;2023-07-31T07:06:52;16.70;99.90
18779;DHT22;9518;51.720;14.384;2023-07-31T07:09:20;16.60;1.00
18779;DHT22;9518;51.720;14.384;2023-07-31T07:11:47;16.50;1.00
18779;DHT22;9518;51.720;14.384;2023-07-31T07:14:14;16.40;1.00
18779;DHT22;9518;51.720;14.384;2023-07-31T07:16:41;16.30;42.40
18779;DHT22;9518;51.720;14.384;2023-07-31T07:19:08;16.40;13.30
18779;DHT22;9518;51.720;14.384;2023-07-31T07:21:35;16.30;58.60
18779;DHT22;9518;51.720;14.384;2023-07-31T07:24:02;16.20;99.90
18779;DHT22;9518;51.720;14.384;2023-07-31T07:26:30;16.10;99.90
18779;DHT22;9518;51.720;14.384;2023-07-31T07:28:57;16.10;99.90
18779;DHT22;9518;51.720;14.384;2023-07-31T07:31:26;16.10;99.90
18779;DHT22;9518;51.720;14.384;2023-07-31T07:33:53;16.00;99.90
18779;DHT22;9518;51.720;14.384;2023-07-31T07:36:21;15.90;99.90
18779;DHT22;9518;51.720;14.384;2023-07-31T07:38:48;15.90;99.90
18779;DHT22;9518;51.720;14.384;2023-07-31T07:41:15;15.80;99.90
18779;DHT22;9518;51.720;14.384;2023-07-31T07:43:43;16.00;99.90
18779;DHT22;9518;51.720;14.384;2023-07-31T07:46:10;16.00;99.90
18779;DHT22;9518;51.720;14.384;2023-07-31T07:48:37;16.10;99.90
18779;DHT22;9518;51.720;14.384;2023-07-31T07:51:04;16.10;99.90
18779;DHT22;9518;51.720;14.384;2023-07-31T07:53:31;16.20;99.90
18779;DHT22;9518;51.720;14.384;2023-07-31T07:55:58;16.20;99.90
18779;DHT22;9518;51.720;14.384;2023-07-31T07:58:25;16.20;99.90
18779;DHT22;9518;51.720;14.384;2023-07-31T08:00:53;16.10;99.90
18779;DHT22;9518;51.720;14.384;2023-07-31T08:03:22;16.20;99.90
18779;DHT22;9518;51.720;14.384;2023-07-31T08:05:49;16.20;99.90
18779;DHT22;9518;51.720;14.384;2023-07-31T08:08:16;16.30;99.90
18779;DHT22;9518;51.720;14.384;2023-07-31T08:10:43;16.40;99.90
18779;DHT22;9518;51.720;14.384;2023-07-31T08:13:11;16.50;99.90
18779;DHT22;9518;51.720;14.384;2023-07-31T08:15:38;16.40;99.90
18779;DHT22;9518;51.720;14.384;2023-07-31T08:18:09;16.30;99.90
18779;DHT22;9518;51.720;14.384;2023-07-31T08:20:37;16.30;99.90
18779;DHT22;9518;51.720;14.384;2023-07-31T08:23:04;16.40;99.90
18779;DHT22;9518;51.720;14.384;2023-07-31T08:25:34;16.40;99.90
18779;DHT22;9518;51.720;14.384;2023-07-31T08:28:01;16.40;99.90
18779;DHT22;9518;51.720;14.384;2023-07-31T08:30:28;16.40;99.90
18779;DHT22;9518;51.720;14.384;2023-07-31T08:32:55;16.40;99.90
18779;DHT22;9518;51.720;14.384;2023-07-31T08:35:24;16.60;99.90
18779;DHT22;9518;51.720;14.384;2023-07-31T08:37:51;16.60;99.90
18779;DHT22;9518;51.720;14.384;2023-07-31T08:40:18;16.80;99.90
18779;DHT22;9518;51.720;14.384;2023-07-31T08:42:46;16.90;99.90
18779;DHT22;9518;51.720;14.384;2023-07-31T08:45:14;16.90;99.90
18779;DHT22;9518;51.720;14.384;2023-07-31T08:47:44;17.00;99.90
18779;DHT22;9518;51.720;14.384;2023-07-31T08:50:12;17.10;99.90
18779;DHT22;9518;51.720;14.384;2023-07-31T08:52:41;17.10;99.90
18779;DHT22;9518;51.720;14.384;2023-07-31T08:55:08;17.00;99.90
18779;DHT22;9518;51.720;14.384;2023-07-31T08:57:36;16.90;99.90
18779;DHT22;9518;51.720;14.384;2023-07-31T09:00:05;17.00;99.90
18779;DHT22;9518;51.720;14.384;2023-07-31T09:02:37;17.40;99.90
18779;DHT22;9518;51.720;14.384;2023-07-31T09:05:06;17.70;99.90
18779;DHT22;9518;51.720;14.384;2023-07-31T09:07:34;17.80;99.90
18779;DHT22;9518;51.720;14.384;2023-07-31T09:10:04;18.00;99.90
18779;DHT22;9518;51.720;14.384;2023-07-31T09:12:31;18.10;99.90
18779;DHT22;9518;51.720;14.384;2023-07-31T09:14:58;18.30;99.90
18779;DHT22;9518;51.720;14.384;2023-07-31T09:17:32;18.20;99.90
18779;DHT22;9518;51.720;14.384;2023-07-31T09:20:13;18.10;99.90
18779;DHT22;9518;51.720;14.384;2023-07-31T09:22:40;18.50;99.90
18779;DHT22;9518;51.720;14.384;2023-07-31T09:25:19;18.80;99.90
18779;DHT22;9518;51.720;14.384;2023-07-31T09:27:47;19.10;99.90
18779;DHT22;9518;51.720;14.384;2023-07-31T09:30:14;19.40;99.90
18779;DHT22;9518;51.720;14.384;2023-07-31T09:32:42;19.80;99.90
18779;DHT22;9518;51.720;14.384;2023-07-31T09:35:19;19.90;99.90
18779;DHT22;9518;51.720;14.384;2023-07-31T09:37:51;19.80;99.90
18779;DHT22;9518;51.720;14.384;2023-07-31T09:40:29;19.90;1.00
18779;DHT22;9518;51.720;14.384;2023-07-31T09:42:58;20.20;99.90
18779;DHT22;9518;51.720;14.384;2023-07-31T09:45:25;20.20;1.00
18779;DHT22;9518;51.720;14.384;2023-07-31T09:47:53;20.30;1.00
18779;DHT22;9518;51.720;14.384;2023-07-31T09:50:22;20.60;95.20
18779;DHT22;9518;51.720;14.384;2023-07-31T09:52:49;20.80;99.90
18779;DHT22;9518;51.720;14.384;2023-07-31T09:55:16;21.00;1.00
18779;DHT22;9518;51.720;14.384;2023-07-31T09:57:46;20.80;1.00
18779;DHT22;9518;51.720;14.384;2023-07-31T10:00:15;20.70;1.00
18779;DHT22;9518;51.720;14.384;2023-07-31T10:02:45;20.90;1.00
18779;DHT22;9518;51.720;14.384;2023-07-31T10:05:13;21.00;1.00
18779;DHT22;9518;51.720;14.384;2023-07-31T10:07:42;21.00;1.00
18779;DHT22;9518;51.720;14.384;2023-07-31T10:10:10;21.20;1.00
18779;DHT22;9518;51.720;14.384;2023-07-31T10:12:38;21.30;1.00
18779;DHT22;9518;51.720;14.384;2023-07-31T10:15:09;21.50;1.00
18779;DHT22;9518;51.720;14.384;2023-07-31T10:17:36;21.50;1.00
18779;DHT22;9518;51.720;14.384;2023-07-31T10:20:04;21.80;1.00
18779;DHT22;9518;51.720;14.384;2023-07-31T10:22:33;21.90;1.00
18779;DHT22;9518;51.720;14.384;2023-07-31T10:25:01;22.10;1.00
18779;DHT22;9518;51.720;14.384;2023-07-31T10:27:28;22.20;1.00
18779;DHT22;9518;51.720;14.384;2023-07-31T10:29:56;22.40;1.00
18779;DHT22;9518;51.720;14.384;2023-07-31T10:32:25;22.20;1.00
18779;DHT22;9518;51.720;14.384;2023-07-31T10:34:55;21.80;1.00
18779;DHT22;9518;51.720;14.384;2023-07-31T10:37:23;21.80;1.00
18779;DHT22;9518;51.720;14.384;2023-07-31T10:39:58;21.40;1.00
18779;DHT22;9518;51.720;14.384;2023-07-31T10:42:30;21.00;1.00
18779;DHT22;9518;51.720;14.384;2023-07-31T10:44:58;20.60;1.00
18779;DHT22;9518;51.720;14.384;2023-07-31T10:47:27;20.40;1.00
18779;DHT22;9518;51.720;14.384;2023-07-31T10:50:12;20.20;1.00
18779;DHT22;9518;51.720;14.384;2023-07-31T10:52:39;20.10;1.00
18779;DHT22;9518;51.720;14.384;2023-07-31T10:55:23;20.20;1.00
18779;DHT22;9518;51.720;14.384;2023-07-31T10:57:50;20.20;1.00
18779;DHT22;9518;51.720;14.384;2023-07-31T11:00:22;20.20;1.00
18779;DHT22;9518;51.720;14.384;2023-07-31T11:03:02;20.30;1.00
18779;DHT22;9518;51.720;14.384;2023-07-31T11:05:47;20.40;1.00
18779;DHT22;9518;51.720;14.384;2023-07-31T11:08:16;20.30;1.00
18779;DHT22;9518;51.720;14.384;2023-07-31T11:10:44;20.40;1.00
18779;DHT22;9518;51.720;14.384;2023-07-31T11:13:12;20.50;1.00
18779;DHT22;9518;51.720;14.384;2023-07-31T11:15:39;20.60;1.00
18779;DHT22;9518;51.720;14.384;2023-07-31T11:18:07;20.60;1.00
18779;DHT22;9518;51.720;14.384;2023-07-31T11:20:37;20.70;1.00
18779;DHT22;9518;51.720;14.384;2023-07-31T11:23:07;20.80;1.00
18779;DHT22;9518;51.720;14.384;2023-07-31T11:25:34;20.80;1.00
18779;DHT22;9518;51.720;14.384;2023-07-31T11:28:06;20.60;1.00
18779;DHT22;9518;51.720;14.384;2023-07-31T11:30:33;20.60;1.00
18779;DHT22;9518;51.720;14.384;2023-07-31T11:33:02;20.60;1.00
18779;DHT22;9518;51.720;14.384;2023-07-31T11:35:32;20.60;1.00
18779;DHT22;9518;51.720;14.384;2023-07-31T11:37:59;20.80;1.00
18779;DHT22;9518;51.720;14.384;2023-07-31T11:40:27;20.90;1.00
18779;DHT22;9518;51.720;14.384;2023-07-31T11:42:56;21.00;1.00
18779;DHT22;9518;51.720;14.384;2023-07-31T11:45:25;21.20;1.00
18779;DHT22;9518;51.720;14.384;2023-07-31T11:47:55;21.30;1.00
18779;DHT22;9518;51.720;14.384;2023-07-31T11:50:23;21.40;1.00
18779;DHT22;9518;51.720;14.384;2023-07-31T11:52:56;21.30;1.00
18779;DHT22;9518;51.720;14.384;2023-07-31T11:55:24;21.20;1.00
18779;DHT22;9518;51.720;14.384;2023-07-31T11:57:54;21.20;1.00
18779;DHT22;9518;51.720;14.384;2023-07-31T12:00:22;21.20;1.00
18779;DHT22;9518;51.720;14.384;2023-07-31T12:02:50;21.20;1.00
18779;DHT22;9518;51.720;14.384;2023-07-31T12:05:17;21.20;1.00
18779;DHT22;9518;51.720;14.384;2023-07-31T12:07:46;21.20;1.00
18779;DHT22;9518;51.720;14.384;2023-07-31T12:10:25;21.30;1.00
18779;DHT22;9518;51.720;14.384;2023-07-31T12:13:00;21.80;1.00
18779;DHT22;9518;51.720;14.384;2023-07-31T12:15:37;22.30;1.00
18779;DHT22;9518;51.720;14.384;2023-07-31T12:18:06;23.10;1.00
18779;DHT22;9518;51.720;14.384;2023-07-31T12:20:33;23.50;1.00
18779;DHT22;9518;51.720;14.384;2023-07-31T12:23:01;23.80;1.00
18779;DHT22;9518;51.720;14.384;2023-07-31T12:25:31;23.90;1.00
18779;DHT22;9518;51.720;14.384;2023-07-31T12:28:04;23.40;1.00
18779;DHT22;9518;51.720;14.384;2023-07-31T12:30:33;23.20;1.00
18779;DHT22;9518;51.720;14.384;2023-07-31T12:33:03;22.80;1.00
18779;DHT22;9518;51.720;14.384;2023-07-31T12:35:38;22.90;1.00
18779;DHT22;9518;51.720;14.384;2023-07-31T12:38:05;23.50;1.00
18779;DHT22;9518;51.720;14.384;2023-07-31T12:40:35;24.20;1.00
18779;DHT22;9518;51.720;14.384;2023-07-31T12:43:02;24.30;99.90
18779;DHT22;9518;51.720;14.384;2023-07-31T12:45:30;24.00;99.90
18779;DHT22;9518;51.720;14.384;2023-07-31T12:47:57;23.80;99.90
18779;DHT22;9518;51.720;14.384;2023-07-31T12:50:24;23.70;99.90
18779;DHT22;9518;51.720;14.384;2023-07-31T12:52:52;23.60;99.90
18779;DHT22;9518;51.720;14.384;2023-07-31T12:55:20;23.30;99.90
18779;DHT22;9518;51.720;14.384;2023-07-31T12:57:48;22.80;99.90
18779;DHT22;9518;51.720;14.384;2023-07-31T13:00:15;22.60;99.90
18779;DHT22;9518;51.720;14.384;2023-07-31T13:02:42;22.30;99.90
18779;DHT22;9518;51.720;14.384;2023-07-31T13:05:10;22.10;1.00
18779;DHT22;9518;51.720;14.384;2023-07-31T13:07:37;22.20;99.90
18779;DHT22;9518;51.720;14.384;2023-07-31T13:10:05;22.60;1.00
18779;DHT22;9518;51.720;14.384;2023-07-31T13:12:32;22.80;99.90
18779;DHT22;9518;51.720;14.384;2023-07-31T13:15:00;23.10;1.00
18779;DHT22;9518;51.720;14.384;2023-07-31T13:17:27;23.30;99.90
18779;DHT22;9518;51.720;14.384;2023-07-31T13:19:54;23.20;99.90
18779;DHT22;9518;51.720;14.384;2023-07-31T13:22:21;23.10;1.00
18779;DHT22;9518;51.720;14.384;2023-07-31T13:24:48;23.00;99.90
18779;DHT22;9518;51.720;14.384;2023-07-31T13:27:15;22.70;99.90
18779;DHT22;9518;51.720;14.384;2023-07-31T13:29:46;22.60;99.90
18779;DHT22;9518;51.720;14.384;2023-07-31T13:32:15;22.30;99.90
18779;DHT22;9518;51.720;14.384;2023-07-31T13:34:42;21.90;99.90
18779;DHT22;9518;51.720;14.384;2023-07-31T13:37:09;21.80;99.90
18779;DHT22;9518;51.720;14.384;2023-07-31T13:39:36;21.90;1.00
18779;DHT22;9518;51.720;14.384;2023-07-31T13:42:04;22.10;1.00
18779;DHT22;9518;51.720;14.384;2023-07-31T13:44:32;22.30;99.90
18779;DHT22;9518;51.720;14.384;2023-07-31T13:46:59;22.40;99.90
18779;DHT22;9518;51.720;14.384;2023-07-31T13:49:28;22.60;99.90
18779;DHT22;9518;51.720;14.384;2023-07-31T13:51:55;22.70;1.00
18779;DHT22;9518;51.720;14.384;2023-07-31T13:54:23;22.70;1.00
18779;DHT22;9518;51.720;14.384;2023-07-31T13:56:51;22.90;99.90
18779;DHT22;9518;51.720;14.384;2023-07-31T13:59:18;22.70;99.90
18779;DHT22;9518;51.720;14.384;2023-07-31T14:01:46;22.40;1.00
18779;DHT22;9518;51.720;14.384;2023-07-31T14:04:13;22.10;1.00
18779;DHT22;9518;51.720;14.384;2023-07-31T14:06:42;22.00;1.00
18779;DHT22;9518;51.720;14.384;2023-07-31T14:09:09;21.90;1.00
18779;DHT22;9518;51.720;14.384;2023-07-31T14:11:36;21.90;1.00
18779;DHT22;9518;51.720;14.384;2023-07-31T14:14:03;22.00;1.00
18779;DHT22;9518;51.720;14.384;2023-07-31T14:16:30;22.10;1.00
18779;DHT22;9518;51.720;14.384;2023-07-31T14:18:57;22.10;1.00
18779;DHT22;9518;51.720;14.384;2023-07-31T14:21:25;22.10;1.00
18779;DHT22;9518;51.720;14.384;2023-07-31T14:23:53;22.20;1.00
18779;DHT22;9518;51.720;14.384;2023-07-31T14:26:20;22.40;1.00
18779;DHT22;9518;51.720;14.384;2023-07-31T14:28:47;23.10;1.00
18779;DHT22;9518;51.720;14.384;2023-07-31T14:31:14;23.80;1.00
18779;DHT22;9518;51.720;14.384;2023-07-31T14:33:41;24.20;99.90
18779;DHT22;9518;51.720;14.384;2023-07-31T14:36:08;24.20;99.90
18779;DHT22;9518;51.720;14.384;2023-07-31T14:38:35;23.80;99.90
18779;DHT22;9518;51.720;14.384;2023-07-31T14:41:03;23.20;99.90
18779;DHT22;9518;51.720;14.384;2023-07-31T14:43:30;22.80;99.90
18779;DHT22;9518;51.720;14.384;2023-07-31T14:45:58;22.60;99.90
18779;DHT22;9518;51.720;14.384;2023-07-31T14:48:25;22.80;99.90
18779;DHT22;9518;51.720;14.384;2023-07-31T14:50:52;22.90;99.90
18779;DHT22;9518;51.720;14.384;2023-07-31T14:53:20;23.00;99.90
18779;DHT22;9518;51.720;14.384;2023-07-31T14:55:48;23.10;99.90
18779;DHT22;9518;51.720;14.384;2023-07-31T14:58:16;23.20;99.90
18779;DHT22;9518;51.720;14.384;2023-07-31T15:00:43;23.20;99.90
18779;DHT22;9518;51.720;14.384;2023-07-31T15:03:10;23.10;99.90
18779;DHT22;9518;51.720;14.384;2023-07-31T15:05:37;23.10;99.90
18779;DHT22;9518;51.720;14.384;2023-07-31T15:08:04;23.10;99.90
18779;DHT22;9518;51.720;14.384;2023-07-31T15:10:32;22.90;99.90
18779;DHT22;9518;51.720;14.384;2023-07-31T15:12:59;22.70;99.90
18779;DHT22;9518;51.720;14.384;2023-07-31T15:15:28;22.50;99.90
18779;DHT22;9518;51.720;14.384;2023-07-31T15:17:55;22.30;99.90
18779;DHT22;9518;51.720;14.384;2023-07-31T15:20:22;22.30;99.90
18779;DHT22;9518;51.720;14.384;2023-07-31T15:22:49;22.60;99.90
18779;DHT22;9518;51.720;14.384;2023-07-31T15:25:16;23.90;99.90
18779;DHT22;9518;51.720;14.384;2023-07-31T15:27:43;26.40;99.90
18779;DHT22;9518;51.720;14.384;2023-07-31T15:30:11;27.90;99.90
18779;DHT22;9518;51.720;14.384;2023-07-31T15:32:39;28.60;99.90
18779;DHT22;9518;51.720;14.384;2023-07-31T15:35:07;27.70;99.90
18779;DHT22;9518;51.720;14.384;2023-07-31T15:37:34;28.10;99.90
18779;DHT22;9518;51.720;14.384;2023-07-31T15:40:01;29.00;99.90